createdAt,value
2023-08-24T00:00:39.823Z,18.34
2023-08-24T00:05:41.909Z,18.24
2023-08-24T00:10:45.275Z,18.51
2023-08-24T00:15:47.197Z,18.59
2023-08-24T00:20:49.959Z,18.28
2023-08-24T00:25:51.720Z,18.25
2023-08-24T00:30:53.431Z,18.29
2023-08-24T00:35:55.142Z,18.05
2023-08-24T00:40:57.360Z,18.21
2023-08-24T00:46:01.990Z,18.13
2023-08-24T00:51:04.149Z,17.92
2023-08-24T00:56:07.673Z,17.79
2023-08-24T01:01:09.580Z,18.10
2023-08-24T01:06:11.330Z,17.81
2023-08-24T01:11:16.544Z,17.62
2023-08-24T01:16:22.172Z,17.48
2023-08-24T01:21:24.851Z,17.67
2023-08-24T01:26:27.841Z,17.62
2023-08-24T01:31:29.581Z,17.48
2023-08-24T01:36:31.771Z,17.45
2023-08-24T01:41:44.240Z,17.60
2023-08-24T01:46:48.010Z,17.60
2023-08-24T01:51:50.639Z,17.40
2023-08-24T01:56:52.368Z,17.24
2023-08-24T02:01:54.127Z,17.59
2023-08-24T02:06:55.868Z,17.42
2023-08-24T02:11:57.536Z,17.14
2023-08-24T02:16:59.329Z,17.02
2023-08-24T02:22:01.068Z,17.22
2023-08-24T02:27:02.926Z,17.20
2023-08-24T02:32:05.029Z,17.23
2023-08-24T02:37:06.970Z,17.09
2023-08-24T02:42:08.678Z,17.04
2023-08-24T02:47:10.343Z,17.14
2023-08-24T02:52:12.016Z,16.85
2023-08-24T02:57:13.731Z,16.92
2023-08-24T03:02:15.815Z,16.92
2023-08-24T03:07:17.537Z,16.94
2023-08-24T03:12:19.298Z,17.20
2023-08-24T03:17:22.122Z,17.09
2023-08-24T03:22:23.937Z,16.96
2023-08-24T03:27:25.642Z,16.69
2023-08-24T03:32:27.397Z,16.99
2023-08-24T03:37:29.532Z,17.01
2023-08-24T03:42:31.525Z,16.82
2023-08-24T03:47:33.717Z,16.58
2023-08-24T03:52:35.435Z,16.40
2023-08-24T03:57:39.112Z,16.34
2023-08-24T04:02:43.879Z,16.50
2023-08-24T04:07:52.444Z,16.56
2023-08-24T04:12:54.562Z,16.58
2023-08-24T04:17:56.432Z,16.40
2023-08-24T04:22:58.195Z,16.47
2023-08-24T04:27:59.862Z,16.53
2023-08-24T04:33:01.546Z,16.40
2023-08-24T04:38:03.486Z,16.38
2023-08-24T04:43:05.128Z,16.67
2023-08-24T04:48:07.055Z,16.64
2023-08-24T04:53:08.767Z,16.53
2023-08-24T04:58:11.987Z,16.54
2023-08-24T05:03:14.725Z,16.57
2023-08-24T05:08:16.483Z,16.70
2023-08-24T05:13:18.385Z,16.85
2023-08-24T05:18:20.096Z,16.89
2023-08-24T05:23:21.784Z,17.09
2023-08-24T05:28:23.495Z,17.34
2023-08-24T05:33:25.828Z,17.44
2023-08-24T05:38:27.717Z,17.63
2023-08-24T05:43:29.424Z,17.73
2023-08-24T05:48:31.102Z,17.74
2023-08-24T05:53:32.789Z,18.01
2023-08-24T05:58:35.050Z,18.20
2023-08-24T06:03:36.827Z,18.50
2023-08-24T06:08:38.698Z,19.19
2023-08-24T06:13:40.378Z,19.37
2023-08-24T06:18:42.102Z,19.93
2023-08-24T06:23:45.347Z,20.41
2023-08-24T06:28:47.119Z,20.74
2023-08-24T06:33:50.019Z,21.04
2023-08-24T06:38:52.236Z,21.31
2023-08-24T06:43:55.024Z,21.35
2023-08-24T06:48:56.745Z,21.28
2023-08-24T06:53:58.466Z,21.53
2023-08-24T06:59:00.242Z,21.36
2023-08-24T07:04:01.978Z,21.84
2023-08-24T07:09:07.579Z,21.89
2023-08-24T07:14:09.286Z,21.90
2023-08-24T07:19:11.325Z,22.21
2023-08-24T07:24:13.060Z,22.24
2023-08-24T07:29:14.741Z,22.47
2023-08-24T07:34:16.969Z,22.67
2023-08-24T07:39:18.635Z,22.53
2023-08-24T07:44:20.371Z,22.59
2023-08-24T07:49:22.113Z,22.74
2023-08-24T07:54:23.814Z,22.98
2023-08-24T07:59:25.514Z,23.06
2023-08-24T08:04:27.384Z,23.11
2023-08-24T08:09:29.123Z,23.51
2023-08-24T08:14:31.079Z,23.97
2023-08-24T08:19:32.803Z,23.85
2023-08-24T08:24:34.646Z,24.12
2023-08-24T08:29:36.403Z,24.37
2023-08-24T08:34:38.094Z,24.62
2023-08-24T08:39:39.887Z,25.00
2023-08-24T08:44:48.240Z,24.85
2023-08-24T08:49:53.559Z,24.95
2023-08-24T08:54:55.376Z,25.27
2023-08-24T08:59:59.895Z,25.38
2023-08-24T09:05:01.877Z,25.66
2023-08-24T09:10:08.316Z,26.29
2023-08-24T09:15:10.740Z,26.61
2023-08-24T09:20:12.909Z,26.67
2023-08-24T09:25:14.690Z,26.75
2023-08-24T09:30:19.882Z,26.98
2023-08-24T09:35:22.150Z,27.31
2023-08-24T09:40:27.390Z,27.77
2023-08-24T09:45:28.918Z,28.66
2023-08-24T09:50:30.858Z,29.53
2023-08-24T09:55:37.722Z,29.34
2023-08-24T10:00:39.542Z,29.48
2023-08-24T10:05:51.968Z,29.62
2023-08-24T10:10:59.778Z,29.21
2023-08-24T10:16:02.135Z,29.49
2023-08-24T10:21:04.750Z,29.03
2023-08-24T10:26:09.111Z,29.27
2023-08-24T10:31:11.380Z,29.52
2023-08-24T10:36:15.427Z,29.38
2023-08-24T10:41:17.144Z,29.29
2023-08-24T10:46:19.207Z,29.22
2023-08-24T10:51:27.853Z,29.56
2023-08-24T10:56:37.489Z,30.10
2023-08-24T11:01:43.486Z,29.37
2023-08-24T11:07:00.197Z,29.21
2023-08-24T11:12:04.666Z,29.01
2023-08-24T11:17:22.730Z,29.24
2023-08-24T11:22:26.404Z,29.40
2023-08-24T11:27:28.652Z,29.53
2023-08-24T11:32:30.544Z,29.64
2023-08-24T11:37:32.519Z,30.06
2023-08-24T11:42:37.676Z,30.19
2023-08-24T11:47:39.767Z,30.67
2023-08-24T11:52:45.302Z,30.16
2023-08-24T11:57:47.053Z,29.51
2023-08-24T12:02:50.019Z,29.49
2023-08-24T12:07:55.974Z,29.35
2023-08-24T12:13:09.294Z,29.08
2023-08-24T12:18:13.184Z,28.88
2023-08-24T12:23:15.148Z,28.99
2023-08-24T12:28:17.452Z,29.44
2023-08-24T12:33:27.154Z,29.47
2023-08-24T12:38:29.066Z,29.41
2023-08-24T12:43:30.828Z,29.11
2023-08-24T12:48:32.650Z,28.91
2023-08-24T12:53:36.645Z,29.07
2023-08-24T12:58:39.299Z,29.33
2023-08-24T13:03:41.020Z,30.10
2023-08-24T13:08:42.711Z,30.37
2023-08-24T13:13:46.730Z,30.39
2023-08-24T13:18:48.955Z,30.44
2023-08-24T13:23:50.745Z,30.35
2023-08-24T13:28:53.088Z,30.20
2023-08-24T13:33:54.796Z,30.02
2023-08-24T13:38:56.544Z,29.72
2023-08-24T13:43:58.511Z,29.62
2023-08-24T13:49:00.279Z,29.78
2023-08-24T13:54:02.121Z,29.62
2023-08-24T13:59:06.921Z,29.36
2023-08-24T14:04:09.157Z,29.48
2023-08-24T14:09:11.034Z,29.32
2023-08-24T14:14:12.749Z,29.13
2023-08-24T14:19:14.504Z,29.18
2023-08-24T14:24:19.702Z,29.08
2023-08-24T14:29:21.808Z,29.03
2023-08-24T14:34:23.509Z,29.18
2023-08-24T14:39:25.320Z,29.18
2023-08-24T14:44:27.026Z,29.14
2023-08-24T14:49:29.518Z,29.19
2023-08-24T14:54:31.198Z,29.48
2023-08-24T14:59:33.288Z,29.52
2023-08-24T15:04:34.956Z,29.49
2023-08-24T15:09:36.637Z,29.29
2023-08-24T15:14:38.590Z,29.48
2023-08-24T15:19:40.333Z,29.56
2023-08-24T15:24:43.347Z,29.34
2023-08-24T15:29:45.043Z,29.32
2023-08-24T15:34:47.042Z,29.52
2023-08-24T15:39:48.797Z,29.33
2023-08-24T15:44:50.612Z,29.40
2023-08-24T15:49:52.354Z,29.42
2023-08-24T15:54:54.245Z,29.12
2023-08-24T15:59:56.068Z,29.01
2023-08-24T16:04:57.864Z,29.07
2023-08-24T16:09:59.760Z,29.12
2023-08-24T16:15:02.071Z,29.13
2023-08-24T16:20:08.377Z,29.12
2023-08-24T16:25:10.630Z,28.94
2023-08-24T16:30:12.647Z,28.69
2023-08-24T16:35:15.179Z,28.78
2023-08-24T16:40:17.316Z,28.51
2023-08-24T16:45:19.030Z,28.24
2023-08-24T16:50:20.838Z,28.10
2023-08-24T16:55:22.598Z,28.13
2023-08-24T17:00:24.902Z,28.04
2023-08-24T17:05:26.660Z,28.20
2023-08-24T17:10:28.383Z,28.06
2023-08-24T17:15:30.320Z,28.03
2023-08-24T17:20:36.485Z,27.95
2023-08-24T17:25:46.162Z,27.80
2023-08-24T17:30:48.756Z,27.50
2023-08-24T17:35:51.355Z,27.31
2023-08-24T17:41:07.666Z,27.19
2023-08-24T17:46:09.531Z,26.93
2023-08-24T17:51:11.408Z,26.87
2023-08-24T17:56:13.155Z,26.73
2023-08-24T18:01:15.050Z,26.46
2023-08-24T18:06:16.810Z,26.46
2023-08-24T18:11:18.910Z,26.25
2023-08-24T18:16:20.701Z,25.89
2023-08-24T18:21:22.471Z,25.58
2023-08-24T18:26:24.157Z,25.18
2023-08-24T18:31:27.037Z,25.17
2023-08-24T18:36:28.818Z,25.00
2023-08-24T18:41:30.598Z,24.81
2023-08-24T18:46:32.394Z,24.46
2023-08-24T18:51:34.117Z,24.42
2023-08-24T18:56:35.898Z,24.55
2023-08-24T19:01:39.400Z,24.41
2023-08-24T19:06:47.142Z,24.18
2023-08-24T19:11:49.568Z,24.08
2023-08-24T19:16:51.586Z,23.86
2023-08-24T19:21:53.285Z,23.83
2023-08-24T19:26:55.031Z,23.78
2023-08-24T19:31:56.939Z,23.78
2023-08-24T19:36:58.717Z,23.53
2023-08-24T19:42:00.605Z,23.37
2023-08-24T19:47:02.343Z,23.29
2023-08-24T19:52:04.286Z,23.56
2023-08-24T19:57:09.389Z,23.39
2023-08-24T20:02:11.176Z,23.34
2023-08-24T20:07:12.895Z,23.21
2023-08-24T20:12:14.568Z,23.21
2023-08-24T20:17:19.666Z,23.14
2023-08-24T20:22:21.390Z,23.00
2023-08-24T20:27:24.040Z,22.90
2023-08-24T20:32:25.778Z,22.77
2023-08-24T20:37:27.513Z,22.75
2023-08-24T20:42:29.773Z,22.87
2023-08-24T20:47:31.567Z,22.85
2023-08-24T20:52:33.466Z,22.70
2023-08-24T20:57:35.436Z,22.63
2023-08-24T21:02:37.361Z,22.42
2023-08-24T21:07:39.151Z,22.45
2023-08-24T21:12:40.962Z,22.36
2023-08-24T21:17:42.779Z,22.36
2023-08-24T21:22:44.559Z,22.25
2023-08-24T21:27:46.825Z,22.36
2023-08-24T21:32:48.655Z,22.40
2023-08-24T21:37:50.467Z,22.55
2023-08-24T21:42:52.238Z,22.39
2023-08-24T21:47:54.200Z,22.45
2023-08-24T21:52:56.136Z,22.42
2023-08-24T21:57:58.930Z,22.39
2023-08-24T22:03:01.080Z,22.12
2023-08-24T22:08:06.584Z,22.03
2023-08-24T22:13:08.277Z,22.01
2023-08-24T22:18:10.049Z,22.04
2023-08-24T22:23:11.980Z,22.39
2023-08-24T22:28:14.222Z,22.37
2023-08-24T22:33:15.950Z,22.34
2023-08-24T22:38:17.675Z,22.22
2023-08-24T22:43:19.417Z,22.13
2023-08-24T22:48:21.105Z,22.19
2023-08-24T22:53:22.839Z,22.30
2023-08-24T22:58:24.695Z,22.31
2023-08-24T23:03:26.458Z,22.46
2023-08-24T23:08:28.264Z,22.51
2023-08-24T23:13:30.080Z,22.51
2023-08-24T23:18:32.883Z,22.72
2023-08-24T23:23:34.621Z,22.44
2023-08-24T23:28:36.344Z,22.43
2023-08-24T23:33:38.000Z,22.42
2023-08-24T23:38:39.825Z,22.31
2023-08-24T23:43:41.548Z,22.24
2023-08-24T23:48:43.234Z,22.31
2023-08-24T23:53:44.994Z,22.29
2023-08-24T23:58:46.742Z,22.38
